sensor_id;sensor_type;location;lat;lon;timestamp;P1;durP1;ratioP1;P2;durP2;ratioP2
72974;SDS011;61166;54.228;37.632;2023-03-14T00:00:01;2.13;;;0.63;;
72974;SDS011;61166;54.228;37.632;2023-03-14T00:02:28;2.20;;;0.82;;
72974;SDS011;61166;54.228;37.632;2023-03-14T00:04:55;5.40;;;0.83;;
72974;SDS011;61166;54.228;37.632;2023-03-14T00:07:21;2.78;;;1.02;;
72974;SDS011;61166;54.228;37.632;2023-03-14T00:09:48;2.17;;;0.70;;
72974;SDS011;61166;54.228;37.632;2023-03-14T00:12:14;2.65;;;0.65;;
72974;SDS011;61166;54.228;37.632;2023-03-14T00:14:41;2.35;;;0.60;;
72974;SDS011;61166;54.228;37.632;2023-03-14T00:17:08;3.13;;;0.70;;
72974;SDS011;61166;54.228;37.632;2023-03-14T00:19:34;2.78;;;0.77;;
72974;SDS011;61166;54.228;37.632;2023-03-14T00:22:01;2.40;;;0.60;;
72974;SDS011;61166;54.228;37.632;2023-03-14T00:24:28;2.67;;;0.68;;
72974;SDS011;61166;54.228;37.632;2023-03-14T00:26:54;2.75;;;1.20;;
72974;SDS011;61166;54.228;37.632;2023-03-14T00:29:21;3.43;;;0.83;;
72974;SDS011;61166;54.228;37.632;2023-03-14T00:31:47;2.08;;;0.52;;
72974;SDS011;61166;54.228;37.632;2023-03-14T00:34:14;3.55;;;0.85;;
72974;SDS011;61166;54.228;37.632;2023-03-14T00:36:40;2.08;;;0.50;;
72974;SDS011;61166;54.228;37.632;2023-03-14T00:39:07;4.90;;;1.15;;
72974;SDS011;61166;54.228;37.632;2023-03-14T00:41:33;4.27;;;1.30;;
72974;SDS011;61166;54.228;37.632;2023-03-14T00:44:00;2.83;;;0.50;;
72974;SDS011;61166;54.228;37.632;2023-03-14T00:46:27;3.17;;;0.80;;
72974;SDS011;61166;54.228;37.632;2023-03-14T00:48:53;6.60;;;1.15;;
72974;SDS011;61166;54.228;37.632;2023-03-14T00:51:20;3.33;;;1.10;;
72974;SDS011;61166;54.228;37.632;2023-03-14T00:53:46;2.03;;;0.83;;
72974;SDS011;61166;54.228;37.632;2023-03-14T00:56:13;2.35;;;0.70;;
72974;SDS011;61166;54.228;37.632;2023-03-14T00:58:39;2.88;;;1.23;;
72974;SDS011;61166;54.228;37.632;2023-03-14T01:01:07;3.90;;;1.00;;
72974;SDS011;61166;54.228;37.632;2023-03-14T01:03:35;2.50;;;1.00;;
72974;SDS011;61166;54.228;37.632;2023-03-14T01:06:06;2.90;;;0.90;;
72974;SDS011;61166;54.228;37.632;2023-03-14T01:08:41;2.70;;;1.00;;
72974;SDS011;61166;54.228;37.632;2023-03-14T01:11:08;3.25;;;1.17;;
72974;SDS011;61166;54.228;37.632;2023-03-14T01:13:36;3.30;;;1.13;;
72974;SDS011;61166;54.228;37.632;2023-03-14T01:16:04;3.65;;;0.93;;
72974;SDS011;61166;54.228;37.632;2023-03-14T01:18:33;2.07;;;0.70;;
72974;SDS011;61166;54.228;37.632;2023-03-14T01:21:01;3.08;;;0.93;;
72974;SDS011;61166;54.228;37.632;2023-03-14T01:23:29;3.50;;;1.00;;
72974;SDS011;61166;54.228;37.632;2023-03-14T01:25:56;3.05;;;0.80;;
72974;SDS011;61166;54.228;37.632;2023-03-14T01:28:24;3.10;;;0.88;;
72974;SDS011;61166;54.228;37.632;2023-03-14T01:30:50;4.40;;;1.47;;
72974;SDS011;61166;54.228;37.632;2023-03-14T01:33:17;3.33;;;1.23;;
72974;SDS011;61166;54.228;37.632;2023-03-14T01:35:44;4.05;;;1.80;;
72974;SDS011;61166;54.228;37.632;2023-03-14T01:38:10;4.30;;;1.50;;
72974;SDS011;61166;54.228;37.632;2023-03-14T01:40:43;3.47;;;1.67;;
72974;SDS011;61166;54.228;37.632;2023-03-14T01:43:18;4.73;;;1.50;;
72974;SDS011;61166;54.228;37.632;2023-03-14T01:48:32;3.42;;;1.40;;
72974;SDS011;61166;54.228;37.632;2023-03-14T01:51:03;4.22;;;1.42;;
72974;SDS011;61166;54.228;37.632;2023-03-14T01:53:43;4.35;;;2.05;;
72974;SDS011;61166;54.228;37.632;2023-03-14T01:56:11;2.23;;;0.97;;
72974;SDS011;61166;54.228;37.632;2023-03-14T01:58:40;4.18;;;1.40;;
72974;SDS011;61166;54.228;37.632;2023-03-14T02:01:11;3.70;;;1.20;;
72974;SDS011;61166;54.228;37.632;2023-03-14T02:03:38;3.70;;;1.20;;
72974;SDS011;61166;54.228;37.632;2023-03-14T02:06:17;4.05;;;1.40;;
72974;SDS011;61166;54.228;37.632;2023-03-14T02:08:47;3.80;;;1.20;;
72974;SDS011;61166;54.228;37.632;2023-03-14T02:11:14;3.13;;;1.15;;
72974;SDS011;61166;54.228;37.632;2023-03-14T02:13:41;3.75;;;1.30;;
72974;SDS011;61166;54.228;37.632;2023-03-14T02:16:09;3.75;;;1.50;;
72974;SDS011;61166;54.228;37.632;2023-03-14T02:18:35;4.30;;;1.70;;
72974;SDS011;61166;54.228;37.632;2023-03-14T02:21:12;4.90;;;1.63;;
72974;SDS011;61166;54.228;37.632;2023-03-14T02:26:31;3.72;;;1.38;;
72974;SDS011;61166;54.228;37.632;2023-03-14T02:29:04;3.72;;;1.05;;
72974;SDS011;61166;54.228;37.632;2023-03-14T02:31:31;3.28;;;1.20;;
72974;SDS011;61166;54.228;37.632;2023-03-14T02:33:59;4.13;;;1.50;;
72974;SDS011;61166;54.228;37.632;2023-03-14T02:36:26;2.90;;;1.20;;
72974;SDS011;61166;54.228;37.632;2023-03-14T02:39:15;3.08;;;1.30;;
72974;SDS011;61166;54.228;37.632;2023-03-14T02:41:45;3.83;;;1.73;;
72974;SDS011;61166;54.228;37.632;2023-03-14T02:44:11;3.55;;;1.42;;
72974;SDS011;61166;54.228;37.632;2023-03-14T02:46:38;4.17;;;1.63;;
72974;SDS011;61166;54.228;37.632;2023-03-14T02:49:07;4.32;;;1.52;;
72974;SDS011;61166;54.228;37.632;2023-03-14T02:51:36;4.38;;;1.73;;
72974;SDS011;61166;54.228;37.632;2023-03-14T02:54:04;4.90;;;1.65;;
72974;SDS011;61166;54.228;37.632;2023-03-14T02:56:30;3.78;;;1.92;;
72974;SDS011;61166;54.228;37.632;2023-03-14T02:58:57;6.63;;;1.90;;
72974;SDS011;61166;54.228;37.632;2023-03-14T03:01:24;3.85;;;1.50;;
72974;SDS011;61166;54.228;37.632;2023-03-14T03:03:51;5.05;;;1.63;;
72974;SDS011;61166;54.228;37.632;2023-03-14T03:06:17;2.60;;;1.13;;
72974;SDS011;61166;54.228;37.632;2023-03-14T03:08:44;3.97;;;2.20;;
72974;SDS011;61166;54.228;37.632;2023-03-14T03:11:11;4.47;;;1.73;;
72974;SDS011;61166;54.228;37.632;2023-03-14T03:13:38;7.30;;;2.08;;
72974;SDS011;61166;54.228;37.632;2023-03-14T03:16:04;5.50;;;2.35;;
72974;SDS011;61166;54.228;37.632;2023-03-14T03:18:31;5.78;;;2.78;;
72974;SDS011;61166;54.228;37.632;2023-03-14T03:21:02;4.57;;;2.45;;
72974;SDS011;61166;54.228;37.632;2023-03-14T03:23:29;5.13;;;1.53;;
72974;SDS011;61166;54.228;37.632;2023-03-14T03:25:56;6.43;;;1.50;;
72974;SDS011;61166;54.228;37.632;2023-03-14T03:28:23;5.90;;;2.22;;
72974;SDS011;61166;54.228;37.632;2023-03-14T03:30:50;8.63;;;2.30;;
72974;SDS011;61166;54.228;37.632;2023-03-14T03:33:17;5.88;;;2.45;;
72974;SDS011;61166;54.228;37.632;2023-03-14T03:35:44;4.53;;;2.00;;
72974;SDS011;61166;54.228;37.632;2023-03-14T03:38:12;5.20;;;1.98;;
72974;SDS011;61166;54.228;37.632;2023-03-14T03:40:38;5.55;;;2.25;;
72974;SDS011;61166;54.228;37.632;2023-03-14T03:43:05;4.80;;;2.42;;
72974;SDS011;61166;54.228;37.632;2023-03-14T03:45:32;4.47;;;2.30;;
72974;SDS011;61166;54.228;37.632;2023-03-14T03:47:58;5.13;;;2.47;;
72974;SDS011;61166;54.228;37.632;2023-03-14T03:50:25;4.72;;;2.15;;
72974;SDS011;61166;54.228;37.632;2023-03-14T03:52:51;7.18;;;3.30;;
72974;SDS011;61166;54.228;37.632;2023-03-14T03:55:18;4.57;;;2.15;;
72974;SDS011;61166;54.228;37.632;2023-03-14T03:57:44;7.45;;;3.08;;
72974;SDS011;61166;54.228;37.632;2023-03-14T04:00:11;5.57;;;2.70;;
72974;SDS011;61166;54.228;37.632;2023-03-14T04:02:38;6.05;;;3.30;;
72974;SDS011;61166;54.228;37.632;2023-03-14T04:05:05;5.68;;;2.60;;
72974;SDS011;61166;54.228;37.632;2023-03-14T04:07:32;6.38;;;2.40;;
72974;SDS011;61166;54.228;37.632;2023-03-14T04:09:59;6.95;;;2.65;;
72974;SDS011;61166;54.228;37.632;2023-03-14T04:12:25;5.60;;;2.70;;
72974;SDS011;61166;54.228;37.632;2023-03-14T04:14:52;5.80;;;2.50;;
72974;SDS011;61166;54.228;37.632;2023-03-14T04:17:19;5.68;;;2.33;;
72974;SDS011;61166;54.228;37.632;2023-03-14T04:19:47;7.68;;;2.85;;
72974;SDS011;61166;54.228;37.632;2023-03-14T04:22:14;3.85;;;2.38;;
72974;SDS011;61166;54.228;37.632;2023-03-14T04:24:40;5.33;;;2.20;;
72974;SDS011;61166;54.228;37.632;2023-03-14T04:27:07;5.03;;;1.83;;
72974;SDS011;61166;54.228;37.632;2023-03-14T04:29:33;3.78;;;2.03;;
72974;SDS011;61166;54.228;37.632;2023-03-14T04:32:00;7.78;;;2.85;;
72974;SDS011;61166;54.228;37.632;2023-03-14T04:34:27;7.70;;;3.67;;
72974;SDS011;61166;54.228;37.632;2023-03-14T04:36:53;7.97;;;3.50;;
72974;SDS011;61166;54.228;37.632;2023-03-14T04:39:20;19.35;;;3.40;;
72974;SDS011;61166;54.228;37.632;2023-03-14T04:41:46;6.03;;;3.17;;
72974;SDS011;61166;54.228;37.632;2023-03-14T04:44:13;9.82;;;4.38;;
72974;SDS011;61166;54.228;37.632;2023-03-14T04:46:40;8.20;;;2.80;;
72974;SDS011;61166;54.228;37.632;2023-03-14T04:49:06;5.23;;;2.50;;
72974;SDS011;61166;54.228;37.632;2023-03-14T04:51:33;6.75;;;3.08;;
72974;SDS011;61166;54.228;37.632;2023-03-14T04:53:59;9.68;;;3.78;;
72974;SDS011;61166;54.228;37.632;2023-03-14T04:56:26;6.35;;;3.08;;
72974;SDS011;61166;54.228;37.632;2023-03-14T04:58:53;6.07;;;2.85;;
72974;SDS011;61166;54.228;37.632;2023-03-14T05:01:19;6.30;;;2.40;;
72974;SDS011;61166;54.228;37.632;2023-03-14T05:03:46;8.45;;;4.40;;
72974;SDS011;61166;54.228;37.632;2023-03-14T05:06:12;7.38;;;3.25;;
72974;SDS011;61166;54.228;37.632;2023-03-14T05:08:39;7.28;;;4.10;;
72974;SDS011;61166;54.228;37.632;2023-03-14T05:11:06;7.97;;;3.90;;
72974;SDS011;61166;54.228;37.632;2023-03-14T05:13:32;9.13;;;4.00;;
72974;SDS011;61166;54.228;37.632;2023-03-14T05:16:04;6.38;;;2.55;;
72974;SDS011;61166;54.228;37.632;2023-03-14T05:18:32;6.18;;;2.70;;
72974;SDS011;61166;54.228;37.632;2023-03-14T05:20:59;5.30;;;2.88;;
72974;SDS011;61166;54.228;37.632;2023-03-14T05:23:26;6.00;;;3.08;;
72974;SDS011;61166;54.228;37.632;2023-03-14T05:25:52;6.37;;;3.27;;
72974;SDS011;61166;54.228;37.632;2023-03-14T05:28:19;7.53;;;3.10;;
72974;SDS011;61166;54.228;37.632;2023-03-14T05:30:46;6.50;;;2.95;;
72974;SDS011;61166;54.228;37.632;2023-03-14T05:33:13;5.95;;;3.05;;
72974;SDS011;61166;54.228;37.632;2023-03-14T05:35:39;8.68;;;3.28;;
72974;SDS011;61166;54.228;37.632;2023-03-14T05:38:06;8.47;;;4.30;;
72974;SDS011;61166;54.228;37.632;2023-03-14T05:40:33;7.70;;;3.50;;
72974;SDS011;61166;54.228;37.632;2023-03-14T05:43:00;9.18;;;3.67;;
72974;SDS011;61166;54.228;37.632;2023-03-14T05:45:27;7.00;;;3.92;;
72974;SDS011;61166;54.228;37.632;2023-03-14T05:47:53;8.68;;;4.60;;
72974;SDS011;61166;54.228;37.632;2023-03-14T05:50:20;8.10;;;3.53;;
72974;SDS011;61166;54.228;37.632;2023-03-14T05:52:46;7.85;;;4.35;;
72974;SDS011;61166;54.228;37.632;2023-03-14T05:55:13;12.32;;;4.22;;
72974;SDS011;61166;54.228;37.632;2023-03-14T05:57:39;8.55;;;4.15;;
72974;SDS011;61166;54.228;37.632;2023-03-14T06:00:06;8.00;;;4.28;;
72974;SDS011;61166;54.228;37.632;2023-03-14T06:02:33;8.10;;;3.72;;
72974;SDS011;61166;54.228;37.632;2023-03-14T06:05:00;6.97;;;3.20;;
72974;SDS011;61166;54.228;37.632;2023-03-14T06:07:26;7.28;;;3.50;;
72974;SDS011;61166;54.228;37.632;2023-03-14T06:09:53;7.57;;;4.25;;
72974;SDS011;61166;54.228;37.632;2023-03-14T06:12:20;6.50;;;3.17;;
72974;SDS011;61166;54.228;37.632;2023-03-14T06:14:46;5.93;;;2.80;;
72974;SDS011;61166;54.228;37.632;2023-03-14T06:17:13;6.57;;;3.47;;
72974;SDS011;61166;54.228;37.632;2023-03-14T06:19:40;7.40;;;3.13;;
72974;SDS011;61166;54.228;37.632;2023-03-14T06:22:06;7.20;;;4.13;;
72974;SDS011;61166;54.228;37.632;2023-03-14T06:24:33;7.00;;;3.90;;
72974;SDS011;61166;54.228;37.632;2023-03-14T06:26:59;5.63;;;2.97;;
72974;SDS011;61166;54.228;37.632;2023-03-14T06:29:26;5.07;;;2.55;;
72974;SDS011;61166;54.228;37.632;2023-03-14T06:31:53;7.27;;;3.13;;
72974;SDS011;61166;54.228;37.632;2023-03-14T06:34:19;7.63;;;3.95;;
72974;SDS011;61166;54.228;37.632;2023-03-14T06:36:46;6.10;;;3.30;;
72974;SDS011;61166;54.228;37.632;2023-03-14T06:39:13;6.15;;;2.83;;
72974;SDS011;61166;54.228;37.632;2023-03-14T06:41:39;5.22;;;2.90;;
72974;SDS011;61166;54.228;37.632;2023-03-14T06:44:06;5.17;;;2.90;;
72974;SDS011;61166;54.228;37.632;2023-03-14T06:46:32;6.15;;;2.58;;
72974;SDS011;61166;54.228;37.632;2023-03-14T06:48:59;5.10;;;3.08;;
72974;SDS011;61166;54.228;37.632;2023-03-14T06:51:26;5.47;;;2.72;;
72974;SDS011;61166;54.228;37.632;2023-03-14T06:53:52;9.55;;;3.92;;
72974;SDS011;61166;54.228;37.632;2023-03-14T06:56:19;8.07;;;4.23;;
72974;SDS011;61166;54.228;37.632;2023-03-14T06:58:45;8.60;;;3.55;;
72974;SDS011;61166;54.228;37.632;2023-03-14T07:01:17;13.05;;;5.60;;
72974;SDS011;61166;54.228;37.632;2023-03-14T07:03:56;6.65;;;3.72;;
72974;SDS011;61166;54.228;37.632;2023-03-14T07:06:22;8.50;;;3.55;;
72974;SDS011;61166;54.228;37.632;2023-03-14T07:08:49;7.80;;;3.47;;
72974;SDS011;61166;54.228;37.632;2023-03-14T07:11:16;6.97;;;2.95;;
72974;SDS011;61166;54.228;37.632;2023-03-14T07:13:43;8.27;;;3.25;;
72974;SDS011;61166;54.228;37.632;2023-03-14T07:16:09;6.13;;;2.95;;
72974;SDS011;61166;54.228;37.632;2023-03-14T07:18:36;7.50;;;3.67;;
72974;SDS011;61166;54.228;37.632;2023-03-14T07:21:03;7.57;;;3.93;;
72974;SDS011;61166;54.228;37.632;2023-03-14T07:23:31;6.85;;;2.97;;
72974;SDS011;61166;54.228;37.632;2023-03-14T07:25:57;6.35;;;3.15;;
72974;SDS011;61166;54.228;37.632;2023-03-14T07:28:24;7.80;;;3.53;;
72974;SDS011;61166;54.228;37.632;2023-03-14T07:30:50;6.95;;;4.10;;
72974;SDS011;61166;54.228;37.632;2023-03-14T07:33:17;9.20;;;3.60;;
72974;SDS011;61166;54.228;37.632;2023-03-14T07:35:44;7.07;;;3.83;;
72974;SDS011;61166;54.228;37.632;2023-03-14T07:38:12;6.70;;;3.00;;
72974;SDS011;61166;54.228;37.632;2023-03-14T07:40:39;6.80;;;3.22;;
72974;SDS011;61166;54.228;37.632;2023-03-14T07:43:05;6.68;;;4.22;;
72974;SDS011;61166;54.228;37.632;2023-03-14T07:45:32;6.70;;;3.63;;
72974;SDS011;61166;54.228;37.632;2023-03-14T07:48:07;8.55;;;3.25;;
72974;SDS011;61166;54.228;37.632;2023-03-14T07:50:34;5.85;;;3.20;;
72974;SDS011;61166;54.228;37.632;2023-03-14T07:53:00;9.50;;;5.13;;
72974;SDS011;61166;54.228;37.632;2023-03-14T07:55:27;7.68;;;4.50;;
72974;SDS011;61166;54.228;37.632;2023-03-14T07:57:53;6.20;;;3.50;;
72974;SDS011;61166;54.228;37.632;2023-03-14T08:00:20;10.93;;;4.13;;
72974;SDS011;61166;54.228;37.632;2023-03-14T08:02:47;4.43;;;2.97;;
72974;SDS011;61166;54.228;37.632;2023-03-14T08:05:14;5.95;;;3.60;;
72974;SDS011;61166;54.228;37.632;2023-03-14T08:07:40;7.82;;;4.07;;
72974;SDS011;61166;54.228;37.632;2023-03-14T08:10:07;8.57;;;4.17;;
72974;SDS011;61166;54.228;37.632;2023-03-14T08:12:35;7.22;;;4.55;;
72974;SDS011;61166;54.228;37.632;2023-03-14T08:15:01;6.57;;;3.40;;
72974;SDS011;61166;54.228;37.632;2023-03-14T08:17:28;6.55;;;4.03;;
72974;SDS011;61166;54.228;37.632;2023-03-14T08:19:55;7.80;;;4.68;;
72974;SDS011;61166;54.228;37.632;2023-03-14T08:22:21;8.13;;;4.43;;
72974;SDS011;61166;54.228;37.632;2023-03-14T08:24:48;7.70;;;4.15;;
72974;SDS011;61166;54.228;37.632;2023-03-14T08:27:14;8.52;;;4.50;;
72974;SDS011;61166;54.228;37.632;2023-03-14T08:29:41;5.88;;;3.63;;
72974;SDS011;61166;54.228;37.632;2023-03-14T08:32:07;9.00;;;4.75;;
72974;SDS011;61166;54.228;37.632;2023-03-14T08:34:34;7.33;;;3.37;;
72974;SDS011;61166;54.228;37.632;2023-03-14T08:37:01;9.48;;;4.75;;
72974;SDS011;61166;54.228;37.632;2023-03-14T08:39:36;7.53;;;3.88;;
72974;SDS011;61166;54.228;37.632;2023-03-14T08:42:03;8.93;;;4.60;;
72974;SDS011;61166;54.228;37.632;2023-03-14T08:44:29;6.72;;;3.60;;
72974;SDS011;61166;54.228;37.632;2023-03-14T08:46:56;6.90;;;3.90;;
72974;SDS011;61166;54.228;37.632;2023-03-14T08:49:23;7.82;;;4.57;;
72974;SDS011;61166;54.228;37.632;2023-03-14T08:51:50;12.98;;;5.07;;
72974;SDS011;61166;54.228;37.632;2023-03-14T08:54:17;8.65;;;4.45;;
72974;SDS011;61166;54.228;37.632;2023-03-14T08:56:43;7.20;;;4.05;;
72974;SDS011;61166;54.228;37.632;2023-03-14T08:59:10;7.57;;;2.83;;
72974;SDS011;61166;54.228;37.632;2023-03-14T09:01:36;8.00;;;3.90;;
72974;SDS011;61166;54.228;37.632;2023-03-14T09:04:03;9.45;;;4.10;;
72974;SDS011;61166;54.228;37.632;2023-03-14T09:06:33;7.65;;;4.75;;
72974;SDS011;61166;54.228;37.632;2023-03-14T09:08:59;8.18;;;5.05;;
72974;SDS011;61166;54.228;37.632;2023-03-14T09:11:26;10.93;;;5.13;;
72974;SDS011;61166;54.228;37.632;2023-03-14T09:13:53;7.38;;;3.88;;
72974;SDS011;61166;54.228;37.632;2023-03-14T09:16:20;10.73;;;5.22;;
72974;SDS011;61166;54.228;37.632;2023-03-14T09:18:46;8.05;;;4.55;;
72974;SDS011;61166;54.228;37.632;2023-03-14T09:21:13;9.20;;;4.25;;
72974;SDS011;61166;54.228;37.632;2023-03-14T09:23:40;8.83;;;3.73;;
72974;SDS011;61166;54.228;37.632;2023-03-14T09:26:07;7.68;;;3.72;;
72974;SDS011;61166;54.228;37.632;2023-03-14T09:28:34;6.45;;;3.47;;
72974;SDS011;61166;54.228;37.632;2023-03-14T09:31:07;8.65;;;4.30;;
72974;SDS011;61166;54.228;37.632;2023-03-14T09:33:35;7.70;;;4.15;;
72974;SDS011;61166;54.228;37.632;2023-03-14T09:36:02;8.03;;;4.20;;
72974;SDS011;61166;54.228;37.632;2023-03-14T09:38:30;6.82;;;4.18;;
72974;SDS011;61166;54.228;37.632;2023-03-14T09:40:58;8.27;;;4.35;;
72974;SDS011;61166;54.228;37.632;2023-03-14T09:43:28;8.07;;;4.22;;
72974;SDS011;61166;54.228;37.632;2023-03-14T09:45:56;5.80;;;3.65;;
72974;SDS011;61166;54.228;37.632;2023-03-14T09:48:29;8.40;;;4.60;;
72974;SDS011;61166;54.228;37.632;2023-03-14T09:50:59;7.95;;;4.07;;
72974;SDS011;61166;54.228;37.632;2023-03-14T09:53:44;10.20;;;4.30;;
72974;SDS011;61166;54.228;37.632;2023-03-14T09:58:45;7.93;;;4.00;;
72974;SDS011;61166;54.228;37.632;2023-03-14T10:01:16;8.00;;;3.93;;
72974;SDS011;61166;54.228;37.632;2023-03-14T10:03:49;5.85;;;3.33;;
72974;SDS011;61166;54.228;37.632;2023-03-14T10:06:19;8.95;;;3.88;;
72974;SDS011;61166;54.228;37.632;2023-03-14T10:08:50;9.05;;;4.28;;
72974;SDS011;61166;54.228;37.632;2023-03-14T10:11:17;7.20;;;4.20;;
72974;SDS011;61166;54.228;37.632;2023-03-14T10:14:04;9.00;;;3.10;;
72974;SDS011;61166;54.228;37.632;2023-03-14T10:16:32;8.18;;;4.55;;
72974;SDS011;61166;54.228;37.632;2023-03-14T10:19:04;9.15;;;4.63;;
72974;SDS011;61166;54.228;37.632;2023-03-14T10:21:40;7.93;;;3.65;;
72974;SDS011;61166;54.228;37.632;2023-03-14T10:24:27;6.97;;;3.75;;
72974;SDS011;61166;54.228;37.632;2023-03-14T10:26:58;7.43;;;4.17;;
72974;SDS011;61166;54.228;37.632;2023-03-14T10:29:32;7.18;;;3.65;;
72974;SDS011;61166;54.228;37.632;2023-03-14T10:32:02;10.52;;;4.38;;
72974;SDS011;61166;54.228;37.632;2023-03-14T10:34:32;8.38;;;4.43;;
72974;SDS011;61166;54.228;37.632;2023-03-14T10:39:51;9.23;;;3.20;;
72974;SDS011;61166;54.228;37.632;2023-03-14T10:42:26;7.95;;;3.47;;
72974;SDS011;61166;54.228;37.632;2023-03-14T10:44:55;8.60;;;4.15;;
72974;SDS011;61166;54.228;37.632;2023-03-14T10:47:23;7.18;;;3.40;;
72974;SDS011;61166;54.228;37.632;2023-03-14T10:49:52;9.18;;;5.20;;
72974;SDS011;61166;54.228;37.632;2023-03-14T10:52:26;8.10;;;3.87;;
72974;SDS011;61166;54.228;37.632;2023-03-14T10:55:10;8.63;;;4.47;;
72974;SDS011;61166;54.228;37.632;2023-03-14T10:57:38;9.73;;;4.75;;
72974;SDS011;61166;54.228;37.632;2023-03-14T11:00:29;7.47;;;4.22;;
72974;SDS011;61166;54.228;37.632;2023-03-14T11:03:09;8.18;;;4.15;;
72974;SDS011;61166;54.228;37.632;2023-03-14T11:05:45;7.27;;;3.73;;
72974;SDS011;61166;54.228;37.632;2023-03-14T11:08:20;7.15;;;4.00;;
72974;SDS011;61166;54.228;37.632;2023-03-14T11:11:14;8.30;;;4.72;;
72974;SDS011;61166;54.228;37.632;2023-03-14T11:21:52;7.78;;;3.88;;
72974;SDS011;61166;54.228;37.632;2023-03-14T11:24:37;6.53;;;3.45;;
72974;SDS011;61166;54.228;37.632;2023-03-14T11:29:47;9.05;;;4.78;;
72974;SDS011;61166;54.228;37.632;2023-03-14T11:32:36;7.97;;;3.73;;
72974;SDS011;61166;54.228;37.632;2023-03-14T11:35:14;6.35;;;3.35;;
72974;SDS011;61166;54.228;37.632;2023-03-14T11:37:56;7.53;;;4.25;;
72974;SDS011;61166;54.228;37.632;2023-03-14T11:40:36;7.95;;;3.90;;
72974;SDS011;61166;54.228;37.632;2023-03-14T11:45:35;9.47;;;4.43;;
72974;SDS011;61166;54.228;37.632;2023-03-14T11:51:05;6.38;;;3.38;;
72974;SDS011;61166;54.228;37.632;2023-03-14T11:53:50;9.70;;;4.75;;
72974;SDS011;61166;54.228;37.632;2023-03-14T11:56:24;6.55;;;3.85;;
72974;SDS011;61166;54.228;37.632;2023-03-14T11:58:57;10.40;;;4.40;;
72974;SDS011;61166;54.228;37.632;2023-03-14T12:01:31;8.02;;;4.13;;
72974;SDS011;61166;54.228;37.632;2023-03-14T12:04:13;9.00;;;4.20;;
72974;SDS011;61166;54.228;37.632;2023-03-14T12:06:48;7.93;;;3.90;;
72974;SDS011;61166;54.228;37.632;2023-03-14T12:09:16;7.68;;;4.00;;
72974;SDS011;61166;54.228;37.632;2023-03-14T12:14:22;8.38;;;4.30;;
72974;SDS011;61166;54.228;37.632;2023-03-14T12:16:56;6.35;;;3.25;;
72974;SDS011;61166;54.228;37.632;2023-03-14T12:19:25;6.93;;;3.58;;
72974;SDS011;61166;54.228;37.632;2023-03-14T12:22:01;8.07;;;4.10;;
72974;SDS011;61166;54.228;37.632;2023-03-14T12:24:38;7.67;;;3.93;;
72974;SDS011;61166;54.228;37.632;2023-03-14T12:27:12;7.82;;;3.92;;
72974;SDS011;61166;54.228;37.632;2023-03-14T12:35:40;7.43;;;3.67;;
72974;SDS011;61166;54.228;37.632;2023-03-14T12:41:02;9.38;;;3.47;;
72974;SDS011;61166;54.228;37.632;2023-03-14T12:43:31;6.68;;;3.72;;
72974;SDS011;61166;54.228;37.632;2023-03-14T12:48:35;10.40;;;3.72;;
72974;SDS011;61166;54.228;37.632;2023-03-14T12:51:12;8.10;;;3.20;;
72974;SDS011;61166;54.228;37.632;2023-03-14T12:53:51;7.65;;;3.10;;
72974;SDS011;61166;54.228;37.632;2023-03-14T12:56:25;6.82;;;3.53;;
72974;SDS011;61166;54.228;37.632;2023-03-14T13:01:56;8.65;;;2.60;;
72974;SDS011;61166;54.228;37.632;2023-03-14T13:10:24;5.38;;;2.53;;
72974;SDS011;61166;54.228;37.632;2023-03-14T13:12:57;6.78;;;3.08;;
72974;SDS011;61166;54.228;37.632;2023-03-14T13:15:44;5.28;;;2.65;;
72974;SDS011;61166;54.228;37.632;2023-03-14T13:18:17;6.23;;;3.00;;
72974;SDS011;61166;54.228;37.632;2023-03-14T13:20:51;6.65;;;2.55;;
72974;SDS011;61166;54.228;37.632;2023-03-14T13:23:22;6.47;;;2.83;;
72974;SDS011;61166;54.228;37.632;2023-03-14T13:25:50;5.82;;;2.35;;
72974;SDS011;61166;54.228;37.632;2023-03-14T13:28:18;6.63;;;3.20;;
72974;SDS011;61166;54.228;37.632;2023-03-14T13:30:49;6.93;;;2.43;;
72974;SDS011;61166;54.228;37.632;2023-03-14T13:33:21;7.85;;;2.75;;
72974;SDS011;61166;54.228;37.632;2023-03-14T13:35:54;5.18;;;2.65;;
72974;SDS011;61166;54.228;37.632;2023-03-14T13:38:23;4.25;;;2.00;;
72974;SDS011;61166;54.228;37.632;2023-03-14T13:40:54;5.68;;;2.65;;
72974;SDS011;61166;54.228;37.632;2023-03-14T13:43:29;5.63;;;2.40;;
72974;SDS011;61166;54.228;37.632;2023-03-14T13:46:03;5.78;;;3.00;;
72974;SDS011;61166;54.228;37.632;2023-03-14T13:48:32;5.70;;;3.13;;
72974;SDS011;61166;54.228;37.632;2023-03-14T13:51:12;5.50;;;2.65;;
72974;SDS011;61166;54.228;37.632;2023-03-14T13:53:44;7.05;;;2.70;;
72974;SDS011;61166;54.228;37.632;2023-03-14T13:56:22;6.13;;;3.13;;
72974;SDS011;61166;54.228;37.632;2023-03-14T13:58:50;7.57;;;2.58;;
72974;SDS011;61166;54.228;37.632;2023-03-14T14:01:18;4.57;;;2.20;;
72974;SDS011;61166;54.228;37.632;2023-03-14T14:03:49;5.90;;;2.10;;
72974;SDS011;61166;54.228;37.632;2023-03-14T14:06:23;5.32;;;1.90;;
72974;SDS011;61166;54.228;37.632;2023-03-14T14:09:24;7.63;;;3.07;;
72974;SDS011;61166;54.228;37.632;2023-03-14T14:12:06;4.97;;;2.00;;
72974;SDS011;61166;54.228;37.632;2023-03-14T14:15:29;5.30;;;2.25;;
72974;SDS011;61166;54.228;37.632;2023-03-14T14:17:38;6.35;;;2.55;;
72974;SDS011;61166;54.228;37.632;2023-03-14T14:20:08;5.75;;;2.40;;
72974;SDS011;61166;54.228;37.632;2023-03-14T14:22:48;4.77;;;2.57;;
72974;SDS011;61166;54.228;37.632;2023-03-14T14:25:16;6.57;;;2.63;;
72974;SDS011;61166;54.228;37.632;2023-03-14T14:27:44;4.15;;;2.05;;
72974;SDS011;61166;54.228;37.632;2023-03-14T14:32:44;5.93;;;2.13;;
72974;SDS011;61166;54.228;37.632;2023-03-14T14:35:22;3.90;;;1.97;;
72974;SDS011;61166;54.228;37.632;2023-03-14T14:37:49;4.88;;;2.00;;
72974;SDS011;61166;54.228;37.632;2023-03-14T14:40:18;5.85;;;2.00;;
72974;SDS011;61166;54.228;37.632;2023-03-14T14:42:47;6.75;;;2.65;;
72974;SDS011;61166;54.228;37.632;2023-03-14T14:45:19;8.02;;;2.60;;
72974;SDS011;61166;54.228;37.632;2023-03-14T14:50:27;7.13;;;2.47;;
72974;SDS011;61166;54.228;37.632;2023-03-14T14:52:57;7.80;;;2.30;;
72974;SDS011;61166;54.228;37.632;2023-03-14T14:55:30;5.97;;;2.17;;
72974;SDS011;61166;54.228;37.632;2023-03-14T14:58:11;4.20;;;1.50;;
72974;SDS011;61166;54.228;37.632;2023-03-14T15:00:54;8.37;;;2.53;;
72974;SDS011;61166;54.228;37.632;2023-03-14T15:03:26;5.78;;;1.75;;
72974;SDS011;61166;54.228;37.632;2023-03-14T15:05:54;5.85;;;2.72;;
72974;SDS011;61166;54.228;37.632;2023-03-14T15:08:21;9.45;;;2.20;;
72974;SDS011;61166;54.228;37.632;2023-03-14T15:10:48;5.05;;;1.95;;
72974;SDS011;61166;54.228;37.632;2023-03-14T15:13:15;3.30;;;1.53;;
72974;SDS011;61166;54.228;37.632;2023-03-14T15:15:42;7.25;;;2.22;;
72974;SDS011;61166;54.228;37.632;2023-03-14T15:18:11;4.93;;;1.95;;
72974;SDS011;61166;54.228;37.632;2023-03-14T15:20:43;5.00;;;1.45;;
72974;SDS011;61166;54.228;37.632;2023-03-14T15:23:11;5.75;;;2.20;;
72974;SDS011;61166;54.228;37.632;2023-03-14T15:25:40;4.20;;;1.70;;
72974;SDS011;61166;54.228;37.632;2023-03-14T15:28:22;4.22;;;1.88;;
72974;SDS011;61166;54.228;37.632;2023-03-14T15:30:54;4.82;;;2.20;;
72974;SDS011;61166;54.228;37.632;2023-03-14T15:33:24;5.97;;;1.83;;
72974;SDS011;61166;54.228;37.632;2023-03-14T15:35:52;4.78;;;2.30;;
72974;SDS011;61166;54.228;37.632;2023-03-14T15:38:20;5.83;;;2.27;;
72974;SDS011;61166;54.228;37.632;2023-03-14T15:40:48;5.22;;;1.63;;